Time,TemperatureF,DewpointF,PressureIn,WindDirection,WindDirectionDegrees,WindSpeedMPH,WindSpeedGustMPH,Humidity,HourlyPrecipIn,Conditions,Clouds,dailyrainin,SoftwareType,DateUTC
2013-03-04 00:00:00,34.5,26.0,29.34,NW,304,4.5,5.8,70,0.00,,,0.00,WXlink_for_OpenVMS,2013-03-04 05:00:00,
2013-03-04 00:05:00,34.5,25.0,29.34,NW,322,4.9,5.4,69,0.00,,,0.00,WXlink_for_OpenVMS,2013-03-04 05:05:00,
2013-03-04 00:10:00,34.5,25.0,29.34,West,267,4.5,4.5,69,0.00,,,0.00,WXlink_for_OpenVMS,2013-03-04 05:10:00,
2013-03-04 00:15:00,34.5,25.0,29.34,NW,316,3.1,4.9,69,0.00,,,0.00,WXlink_for_OpenVMS,2013-03-04 05:15:00,
2013-03-04 00:20:00,34.5,25.0,29.34,NW,305,4.0,5.4,69,0.00,,,0.00,WXlink_for_OpenVMS,2013-03-04 05:20:00,
2013-03-04 00:25:00,34.5,25.0,29.34,WNW,288,2.7,5.4,69,0.00,,,0.00,WXlink_for_OpenVMS,2013-03-04 05:25:00,
2013-03-04 00:35:00,34.3,25.0,29.34,WNW,301,3.1,3.6,69,0.00,,,0.00,WXlink_for_OpenVMS,2013-03-04 05:35:00,
2013-03-04 00:40:00,34.3,25.0,29.34,WNW,300,3.6,3.6,69,0.00,,,0.00,WXlink_for_OpenVMS,2013-03-04 05:40:00,
2013-03-04 00:45:00,34.2,25.0,29.34,WNW,283,4.5,4.5,69,0.00,,,0.00,WXlink_for_OpenVMS,2013-03-04 05:45:00,
2013-03-04 00:50:00,34.2,25.0,29.34,WNW,292,4.9,4.9,69,0.00,,,0.00,WXlink_for_OpenVMS,2013-03-04 05:50:00,
2013-03-04 00:55:00,34.2,25.0,29.34,NW,325,3.6,5.4,69,0.00,,,0.00,WXlink_for_OpenVMS,2013-03-04 05:55:00,
2013-03-04 01:00:00,34.0,25.0,29.34,WNW,294,0.0,0.0,69,0.00,,,0.00,WXlink_for_OpenVMS,2013-03-04 06:00:00,
2013-03-04 01:05:00,34.0,25.0,29.34,SW,236,3.1,3.1,69,0.00,,,0.00,WXlink_for_OpenVMS,2013-03-04 06:05:00,
2013-03-04 01:10:00,34.0,25.0,29.34,West,271,2.7,4.5,69,0.00,,,0.00,WXlink_for_OpenVMS,2013-03-04 06:10:00,
2013-03-04 01:15:00,34.0,25.0,29.34,NW,304,3.1,3.1,69,0.00,,,0.00,WXlink_for_OpenVMS,2013-03-04 06:15:00,
2013-03-04 01:20:00,33.8,25.0,29.34,NW,304,4.0,4.0,69,0.00,,,0.00,WXlink_for_OpenVMS,2013-03-04 06:20:00,
2013-03-04 01:30:00,33.8,25.0,29.34,WSW,251,4.0,4.0,69,0.00,,,0.00,WXlink_for_OpenVMS,2013-03-04 06:30:00,
2013-03-04 01:40:00,33.8,25.0,29.34,NW,312,4.5,5.4,69,0.00,,,0.00,WXlink_for_OpenVMS,2013-03-04 06:40:00,
2013-03-04 01:45:00,33.8,25.0,29.34,WNW,288,2.7,3.1,69,0.00,,,0.00,WXlink_for_OpenVMS,2013-03-04 06:45:00,
2013-03-04 01:50:00,33.6,25.0,29.34,NW,309,3.1,3.1,69,0.00,,,0.00,WXlink_for_OpenVMS,2013-03-04 06:50:00,
2013-03-04 01:55:00,33.6,25.0,29.34,WNW,287,2.7,4.0,69,0.00,,,0.00,WXlink_for_OpenVMS,2013-03-04 06:55:00,
2013-03-04 02:00:00,33.6,25.0,29.34,West,277,3.1,3.1,69,0.00,,,0.00,WXlink_for_OpenVMS,2013-03-04 07:00:00,
2013-03-04 02:05:00,33.4,24.0,29.34,WSW,248,2.2,3.1,69,0.00,,,0.00,WXlink_for_OpenVMS,2013-03-04 07:05:00,
2013-03-04 02:10:00,33.3,24.0,29.34,WNW,294,4.0,5.8,69,0.00,,,0.00,WXlink_for_OpenVMS,2013-03-04 07:10:00,
2013-03-04 02:15:00,33.3,24.0,29.34,West,272,3.6,3.6,69,0.00,,,0.00,WXlink_for_OpenVMS,2013-03-04 07:15:00,
2013-03-04 02:20:00,33.3,24.0,29.34,WNW,290,4.0,4.0,69,0.00,,,0.00,WXlink_for_OpenVMS,2013-03-04 07:20:00,
2013-03-04 02:25:00,33.3,24.0,29.34,WNW,290,3.6,3.6,69,0.00,,,0.00,WXlink_for_OpenVMS,2013-03-04 07:25:00,
2013-03-04 02:30:00,33.1,24.0,29.34,West,281,0.0,0.0,70,0.00,,,0.00,WXlink_for_OpenVMS,2013-03-04 07:30:00,
2013-03-04 02:35:00,33.1,24.0,29.34,WNW,301,2.2,3.1,70,0.00,,,0.00,WXlink_for_OpenVMS,2013-03-04 07:35:00,
2013-03-04 02:40:00,33.1,24.0,29.34,WNW,288,3.1,3.1,70,0.00,,,0.00,WXlink_for_OpenVMS,2013-03-04 07:40:00,
2013-03-04 02:45:00,33.1,24.0,29.34,West,270,0.0,0.0,70,0.00,,,0.00,WXlink_for_OpenVMS,2013-03-04 07:45:00,
2013-03-04 02:50:00,32.9,24.0,29.34,West,261,0.0,0.0,70,0.00,,,0.00,WXlink_for_OpenVMS,2013-03-04 07:50:00,
2013-03-04 02:56:00,32.9,24.0,29.34,WNW,284,3.1,3.1,70,0.00,,,0.00,WXlink_for_OpenVMS,2013-03-04 07:56:00,
2013-03-04 03:05:00,32.7,24.0,29.34,West,275,3.1,3.6,70,0.00,,,0.00,WXlink_for_OpenVMS,2013-03-04 08:05:00,
2013-03-04 03:15:00,32.7,24.0,29.34,WNW,303,4.0,5.8,70,0.00,,,0.00,WXlink_for_OpenVMS,2013-03-04 08:15:00,
2013-03-04 03:20:00,32.7,24.0,29.34,WNW,292,3.6,3.6,70,0.00,,,0.00,WXlink_for_OpenVMS,2013-03-04 08:20:00,
2013-03-04 03:25:00,32.7,24.0,29.34,West,269,4.5,5.4,70,0.00,,,0.00,WXlink_for_OpenVMS,2013-03-04 08:25:00,
2013-03-04 03:30:00,32.7,24.0,29.34,WNW,300,3.6,3.6,70,0.00,,,0.00,WXlink_for_OpenVMS,2013-03-04 08:30:00,
2013-03-04 03:35:00,32.7,24.0,29.34,NNW,328,4.0,4.0,70,0.00,,,0.00,WXlink_for_OpenVMS,2013-03-04 08:35:00,
2013-03-04 03:40:00,32.7,24.0,29.34,WSW,257,3.6,3.6,69,0.00,,,0.00,WXlink_for_OpenVMS,2013-03-04 08:40:00,
2013-03-04 03:45:00,32.5,24.0,29.34,West,279,3.6,3.6,70,0.00,,,0.00,WXlink_for_OpenVMS,2013-03-04 08:45:00,
2013-03-04 03:50:00,32.5,24.0,29.34,WNW,284,0.0,0.0,69,0.00,,,0.00,WXlink_for_OpenVMS,2013-03-04 08:50:00,
2013-03-04 03:55:00,32.5,24.0,29.34,West,266,0.0,0.0,70,0.00,,,0.00,WXlink_for_OpenVMS,2013-03-04 08:55:00,
2013-03-04 04:05:00,32.5,24.0,29.34,WNW,294,2.7,3.6,70,0.00,,,0.00,WXlink_for_OpenVMS,2013-03-04 09:05:00,
2013-03-04 04:10:00,32.5,24.0,29.34,WNW,301,4.0,4.0,70,0.00,,,0.00,WXlink_for_OpenVMS,2013-03-04 09:10:00,
2013-03-04 04:15:00,32.4,24.0,29.34,WNW,284,3.1,3.1,70,0.00,,,0.00,WXlink_for_OpenVMS,2013-03-04 09:15:00,
2013-03-04 04:25:00,32.2,23.0,29.34,West,279,3.1,3.6,69,0.00,,,0.00,WXlink_for_OpenVMS,2013-03-04 09:25:00,
2013-03-04 04:30:00,32.2,23.0,29.34,WNW,303,4.0,4.0,69,0.00,,,0.00,WXlink_for_OpenVMS,2013-03-04 09:30:00,
2013-03-04 04:35:00,32.2,23.0,29.34,WNW,289,2.2,2.7,69,0.00,,,0.00,WXlink_for_OpenVMS,2013-03-04 09:35:00,
2013-03-04 04:40:00,32.0,23.0,29.34,West,265,2.7,2.7,69,0.00,,,0.00,WXlink_for_OpenVMS,2013-03-04 09:40:00,
2013-03-04 04:45:00,32.0,23.0,29.34,West,273,2.7,3.1,69,0.00,,,0.00,WXlink_for_OpenVMS,2013-03-04 09:45:00,
2013-03-04 04:50:00,32.0,23.0,29.34,WNW,282,2.7,3.1,68,0.00,,,0.00,WXlink_for_OpenVMS,2013-03-04 09:50:00,
2013-03-04 04:55:00,31.8,23.0,29.34,West,279,3.1,4.5,69,0.00,,,0.00,WXlink_for_OpenVMS,2013-03-04 09:55:00,
2013-03-04 05:00:00,31.8,22.0,29.34,WNW,282,4.0,4.9,68,0.00,,,0.00,WXlink_for_OpenVMS,2013-03-04 10:00:00,
2013-03-04 05:05:00,31.8,22.0,29.34,West,260,4.0,4.0,68,0.00,,,0.00,WXlink_for_OpenVMS,2013-03-04 10:05:00,
2013-03-04 05:10:00,31.6,22.0,29.34,NW,315,4.0,5.8,68,0.00,,,0.00,WXlink_for_OpenVMS,2013-03-04 10:10:00,
2013-03-04 05:15:00,31.6,22.0,29.34,West,270,3.6,4.0,67,0.00,,,0.00,WXlink_for_OpenVMS,2013-03-04 10:15:00,
2013-03-04 05:20:00,31.5,22.0,29.34,WSW,249,3.1,3.1,67,0.00,,,0.00,WXlink_for_OpenVMS,2013-03-04 10:20:00,
2013-03-04 05:25:00,31.5,22.0,29.34,NW,305,4.5,4.9,67,0.00,,,0.00,WXlink_for_OpenVMS,2013-03-04 10:25:00,
2013-03-04 05:30:00,31.5,22.0,29.34,West,263,3.1,3.1,67,0.00,,,0.00,WXlink_for_OpenVMS,2013-03-04 10:30:00,
2013-03-04 05:35:00,31.5,22.0,29.34,WNW,300,3.1,3.1,67,0.00,,,0.00,WXlink_for_OpenVMS,2013-03-04 10:35:00,
2013-03-04 05:40:00,31.5,21.0,29.34,WNW,291,0.0,0.0,66,0.00,,,0.00,WXlink_for_OpenVMS,2013-03-04 10:40:00,
2013-03-04 05:45:00,31.3,21.0,29.34,West,261,2.7,3.1,66,0.00,,,0.00,WXlink_for_OpenVMS,2013-03-04 10:45:00,
2013-03-04 05:50:00,31.3,21.0,29.34,NW,304,3.1,3.1,66,0.00,,,0.00,WXlink_for_OpenVMS,2013-03-04 10:50:00,
2013-03-04 06:00:00,31.1,21.0,29.34,West,279,4.0,5.4,66,0.00,,,0.00,WXlink_for_OpenVMS,2013-03-04 11:00:00,
2013-03-04 06:05:00,31.1,21.0,29.34,WNW,300,4.0,4.0,66,0.00,,,0.00,WXlink_for_OpenVMS,2013-03-04 11:05:00,
2013-03-04 06:10:00,31.1,21.0,29.34,West,263,3.1,3.1,66,0.00,,,0.00,WXlink_for_OpenVMS,2013-03-04 11:10:00,
2013-03-04 06:15:00,31.1,21.0,29.34,West,280,2.2,2.2,66,0.00,,,0.00,WXlink_for_OpenVMS,2013-03-04 11:15:00,
2013-03-04 06:20:00,31.1,21.0,29.34,WNW,291,4.0,5.4,66,0.00,,,0.00,WXlink_for_OpenVMS,2013-03-04 11:20:00,
2013-03-04 06:25:00,30.9,21.0,29.34,West,276,4.0,5.4,66,0.00,,,0.00,WXlink_for_OpenVMS,2013-03-04 11:25:00,
2013-03-04 06:30:00,30.9,21.0,29.37,West,281,3.1,4.0,65,0.00,,,0.00,WXlink_for_OpenVMS,2013-03-04 11:30:00,
2013-03-04 06:35:00,30.9,21.0,29.37,WSW,252,3.6,3.6,66,0.00,,,0.00,WXlink_for_OpenVMS,2013-03-04 11:35:00,
2013-03-04 06:45:00,30.7,20.0,29.37,WNW,291,3.1,4.0,65,0.00,,,0.00,WXlink_for_OpenVMS,2013-03-04 11:45:00,
2013-03-04 06:50:00,30.7,20.0,29.37,SW,214,4.0,4.0,65,0.00,,,0.00,WXlink_for_OpenVMS,2013-03-04 11:50:00,
2013-03-04 06:55:00,30.7,20.0,29.37,WSW,258,5.4,5.4,65,0.00,,,0.00,WXlink_for_OpenVMS,2013-03-04 11:55:00,
2013-03-04 07:05:00,30.7,20.0,29.37,West,267,2.7,3.1,64,0.00,,,0.00,WXlink_for_OpenVMS,2013-03-04 12:05:00,
2013-03-04 07:15:00,30.7,20.0,29.37,SSW,213,3.1,3.6,64,0.00,,,0.00,WXlink_for_OpenVMS,2013-03-04 12:15:00,
2013-03-04 07:20:00,30.7,20.0,29.37,NNW,339,3.1,5.8,64,0.00,,,0.00,WXlink_for_OpenVMS,2013-03-04 12:20:00,
2013-03-04 07:25:00,31.3,21.0,29.37,SSW,198,3.6,5.8,64,0.00,,,0.00,WXlink_for_OpenVMS,2013-03-04 12:25:00,
2013-03-04 07:30:00,31.3,21.0,29.37,WNW,287,4.9,4.9,64,0.00,,,0.00,WXlink_for_OpenVMS,2013-03-04 12:30:00,
2013-03-04 07:40:00,31.5,20.0,29.37,West,278,3.1,4.9,63,0.00,,,0.00,WXlink_for_OpenVMS,2013-03-04 12:40:00,
2013-03-04 07:45:00,32.0,21.0,29.37,West,266,3.1,3.1,63,0.00,,,0.00,WXlink_for_OpenVMS,2013-03-04 12:45:00,
2013-03-04 07:50:00,32.9,22.0,29.37,SW,230,4.5,4.5,63,0.00,,,0.00,WXlink_for_OpenVMS,2013-03-04 12:50:00,
2013-03-04 07:55:00,33.3,22.0,29.37,WSW,251,3.6,3.6,63,0.00,,,0.00,WXlink_for_OpenVMS,2013-03-04 12:55:00,
2013-03-04 08:00:00,33.1,21.0,29.37,WNW,286,5.4,5.8,62,0.00,,,0.00,WXlink_for_OpenVMS,2013-03-04 13:00:00,
2013-03-04 08:05:00,32.5,21.0,29.37,WNW,288,4.5,5.8,62,0.00,,,0.00,WXlink_for_OpenVMS,2013-03-04 13:05:00,
2013-03-04 08:10:00,32.7,21.0,29.37,WSW,244,4.5,4.5,61,0.00,,,0.00,WXlink_for_OpenVMS,2013-03-04 13:10:00,
2013-03-04 08:15:00,32.9,21.0,29.37,WNW,298,4.9,4.9,61,0.00,,,0.00,WXlink_for_OpenVMS,2013-03-04 13:15:00,
2013-03-04 08:20:00,33.1,21.0,29.37,NNW,340,4.5,5.4,61,0.00,,,0.00,WXlink_for_OpenVMS,2013-03-04 13:20:00,
2013-03-04 08:25:00,33.1,21.0,29.37,WSW,252,4.5,4.5,61,0.00,,,0.00,WXlink_for_OpenVMS,2013-03-04 13:25:00,
2013-03-04 08:30:00,33.1,21.0,29.37,WNW,287,4.5,5.8,60,0.00,,,0.00,WXlink_for_OpenVMS,2013-03-04 13:30:00,
2013-03-04 08:35:00,33.1,21.0,29.37,West,278,3.6,3.6,60,0.00,,,0.00,WXlink_for_OpenVMS,2013-03-04 13:35:00,
2013-03-04 08:40:00,33.3,21.0,29.37,NW,309,3.6,4.5,60,0.00,,,0.00,WXlink_for_OpenVMS,2013-03-04 13:40:00,
2013-03-04 08:45:00,33.3,21.0,29.37,WNW,292,4.0,4.0,60,0.00,,,0.00,WXlink_for_OpenVMS,2013-03-04 13:45:00,
2013-03-04 08:50:00,33.4,21.0,29.37,West,274,3.6,3.6,60,0.00,,,0.00,WXlink_for_OpenVMS,2013-03-04 13:50:00,
2013-03-04 08:55:00,33.8,21.0,29.37,SW,215,4.0,4.0,59,0.00,,,0.00,WXlink_for_OpenVMS,2013-03-04 13:55:00,
2013-03-04 09:00:00,33.8,21.0,29.34,NW,312,4.9,5.4,59,0.00,,,0.00,WXlink_for_OpenVMS,2013-03-04 14:00:00,
2013-03-04 09:05:00,34.0,21.0,29.34,WSW,254,5.8,5.8,58,0.00,,,0.00,WXlink_for_OpenVMS,2013-03-04 14:05:00,
2013-03-04 09:10:00,34.2,21.0,29.34,NW,321,2.7,2.7,58,0.00,,,0.00,WXlink_for_OpenVMS,2013-03-04 14:10:00,
2013-03-04 09:15:00,34.3,21.0,29.34,WNW,294,4.0,6.3,57,0.00,,,0.00,WXlink_for_OpenVMS,2013-03-04 14:15:00,
2013-03-04 09:20:00,34.3,21.0,29.34,NNW,337,4.5,7.6,57,0.00,,,0.00,WXlink_for_OpenVMS,2013-03-04 14:20:00,
2013-03-04 09:30:00,34.3,20.0,29.34,WNW,287,4.0,7.6,56,0.00,,,0.00,WXlink_for_OpenVMS,2013-03-04 14:30:00,
2013-03-04 09:35:00,34.7,21.0,29.34,NW,314,4.5,8.1,56,0.00,,,0.00,WXlink_for_OpenVMS,2013-03-04 14:35:00,
2013-03-04 09:40:00,34.9,21.0,29.34,WSW,245,6.3,6.3,56,0.00,,,0.00,WXlink_for_OpenVMS,2013-03-04 14:40:00,
2013-03-04 09:50:00,35.1,21.0,29.34,NW,315,5.4,6.3,55,0.00,,,0.00,WXlink_for_OpenVMS,2013-03-04 14:50:00,
2013-03-04 09:55:00,35.2,21.0,29.34,WSW,250,4.0,6.3,55,0.00,,,0.00,WXlink_for_OpenVMS,2013-03-04 14:55:00,
2013-03-04 10:00:00,35.6,21.0,29.34,WNW,299,5.8,6.3,55,0.00,,,0.00,WXlink_for_OpenVMS,2013-03-04 15:00:00,
2013-03-04 10:05:00,35.8,21.0,29.34,WSW,237,4.9,5.4,54,0.00,,,0.00,WXlink_for_OpenVMS,2013-03-04 15:05:00,
2013-03-04 10:10:00,36.0,21.0,29.34,NW,312,4.9,5.8,54,0.00,,,0.00,WXlink_for_OpenVMS,2013-03-04 15:10:00,
2013-03-04 10:15:00,36.1,21.0,29.34,WNW,283,6.3,7.6,54,0.00,,,0.00,WXlink_for_OpenVMS,2013-03-04 15:15:00,
2013-03-04 10:20:00,36.1,21.0,29.34,WNW,290,4.5,6.3,53,0.00,,,0.00,WXlink_for_OpenVMS,2013-03-04 15:20:00,
2013-03-04 10:25:00,36.3,21.0,29.34,West,271,5.4,5.4,53,0.00,,,0.00,WXlink_for_OpenVMS,2013-03-04 15:25:00,
2013-03-04 10:30:00,36.5,21.0,29.34,WNW,289,8.3,8.3,52,0.00,,,0.00,WXlink_for_OpenVMS,2013-03-04 15:30:00,
2013-03-04 10:35:00,36.5,21.0,29.34,WSW,255,5.4,5.8,53,0.00,,,0.00,WXlink_for_OpenVMS,2013-03-04 15:35:00,
2013-03-04 10:40:00,36.1,21.0,29.34,WNW,300,4.9,5.8,53,0.00,,,0.00,WXlink_for_OpenVMS,2013-03-04 15:40:00,
2013-03-04 10:45:00,36.5,21.0,29.34,NW,310,6.7,6.7,52,0.00,,,0.00,WXlink_for_OpenVMS,2013-03-04 15:45:00,
2013-03-04 10:50:00,36.9,21.0,29.34,NNW,340,6.3,6.3,52,0.00,,,0.00,WXlink_for_OpenVMS,2013-03-04 15:50:00,
2013-03-04 10:55:00,37.0,21.0,29.34,NW,305,6.3,6.3,52,0.00,,,0.00,WXlink_for_OpenVMS,2013-03-04 15:55:00,
2013-03-04 11:00:00,37.2,21.0,29.34,WSW,255,4.9,5.4,52,0.00,,,0.00,WXlink_for_OpenVMS,2013-03-04 16:00:00,
2013-03-04 11:05:00,37.8,21.0,29.34,WNW,294,5.4,8.1,51,0.00,,,0.00,WXlink_for_OpenVMS,2013-03-04 16:05:00,
2013-03-04 11:10:00,38.1,22.0,29.34,WSW,250,7.2,7.2,51,0.00,,,0.00,WXlink_for_OpenVMS,2013-03-04 16:10:00,
2013-03-04 11:20:00,37.6,21.0,29.34,WNW,288,5.4,5.4,51,0.00,,,0.00,WXlink_for_OpenVMS,2013-03-04 16:20:00,
2013-03-04 11:25:00,37.4,21.0,29.34,NW,306,3.1,3.1,51,0.00,,,0.00,WXlink_for_OpenVMS,2013-03-04 16:25:00,
2013-03-04 11:30:00,37.6,21.0,29.34,NW,314,4.9,5.4,51,0.00,,,0.00,WXlink_for_OpenVMS,2013-03-04 16:30:00,
2013-03-04 11:35:00,37.8,21.0,29.34,WNW,301,2.7,3.1,51,0.00,,,0.00,WXlink_for_OpenVMS,2013-03-04 16:35:00,
2013-03-04 11:40:00,37.8,21.0,29.34,NW,304,5.4,5.4,51,0.00,,,0.00,WXlink_for_OpenVMS,2013-03-04 16:40:00,
2013-03-04 11:45:00,37.6,21.0,29.34,NW,326,4.0,4.0,51,0.00,,,0.00,WXlink_for_OpenVMS,2013-03-04 16:45:00,
2013-03-04 11:55:00,38.1,22.0,29.34,West,265,2.7,3.6,51,0.00,,,0.00,WXlink_for_OpenVMS,2013-03-04 16:55:00,
2013-03-04 12:00:00,38.3,22.0,29.34,WNW,295,5.4,5.4,51,0.00,,,0.00,WXlink_for_OpenVMS,2013-03-04 17:00:00,
2013-03-04 12:05:00,38.1,22.0,29.34,WNW,298,5.4,5.4,51,0.00,,,0.00,WXlink_for_OpenVMS,2013-03-04 17:05:00,
2013-03-04 12:10:00,37.9,21.0,29.34,NW,305,5.8,7.6,51,0.00,,,0.00,WXlink_for_OpenVMS,2013-03-04 17:10:00,
2013-03-04 12:15:00,37.8,21.0,29.34,West,268,3.1,3.1,51,0.00,,,0.00,WXlink_for_OpenVMS,2013-03-04 17:15:00,
2013-03-04 12:25:00,37.9,21.0,29.34,NW,324,4.0,4.9,51,0.00,,,0.00,WXlink_for_OpenVMS,2013-03-04 17:25:00,
2013-03-04 12:30:00,38.1,22.0,29.34,WSW,250,3.6,4.0,51,0.00,,,0.00,WXlink_for_OpenVMS,2013-03-04 17:30:00,
2013-03-04 12:35:00,38.7,22.0,29.34,NNW,338,3.6,8.1,51,0.00,,,0.00,WXlink_for_OpenVMS,2013-03-04 17:35:00,
2013-03-04 12:40:00,38.8,22.0,29.34,West,281,5.4,5.4,50,0.00,,,0.00,WXlink_for_OpenVMS,2013-03-04 17:40:00,
2013-03-04 12:45:00,39.2,22.0,29.31,WNW,300,4.9,8.3,50,0.00,,,0.00,WXlink_for_OpenVMS,2013-03-04 17:45:00,
2013-03-04 12:50:00,39.7,23.0,29.31,West,261,4.0,4.9,50,0.00,,,0.00,WXlink_for_OpenVMS,2013-03-04 17:50:00,
2013-03-04 12:55:00,39.9,23.0,29.31,SW,235,3.6,3.6,50,0.00,,,0.00,WXlink_for_OpenVMS,2013-03-04 17:55:00,
2013-03-04 13:00:00,40.3,23.0,29.31,West,259,3.1,3.1,50,0.00,,,0.00,WXlink_for_OpenVMS,2013-03-04 18:00:00,
2013-03-04 13:05:00,40.5,23.0,29.31,WNW,300,3.1,4.0,50,0.00,,,0.00,WXlink_for_OpenVMS,2013-03-04 18:05:00,
2013-03-04 13:10:00,40.5,23.0,29.31,West,271,4.5,4.5,50,0.00,,,0.00,WXlink_for_OpenVMS,2013-03-04 18:10:00,
2013-03-04 13:15:00,40.1,23.0,29.31,WSW,248,4.5,4.5,50,0.00,,,0.00,WXlink_for_OpenVMS,2013-03-04 18:15:00,
2013-03-04 13:20:00,40.1,23.0,29.31,West,259,4.9,4.9,50,0.00,,,0.00,WXlink_for_OpenVMS,2013-03-04 18:20:00,
2013-03-04 13:25:00,39.9,23.0,29.31,NW,309,5.4,5.4,50,0.00,,,0.00,WXlink_for_OpenVMS,2013-03-04 18:25:00,
2013-03-04 13:30:00,40.1,23.0,29.31,WNW,302,4.0,4.9,50,0.00,,,0.00,WXlink_for_OpenVMS,2013-03-04 18:30:00,
2013-03-04 13:35:00,40.5,23.0,29.31,West,278,4.9,4.9,50,0.00,,,0.00,WXlink_for_OpenVMS,2013-03-04 18:35:00,
2013-03-04 13:40:00,40.5,23.0,29.31,WSW,251,4.9,5.4,50,0.00,,,0.00,WXlink_for_OpenVMS,2013-03-04 18:40:00,
2013-03-04 13:45:00,40.6,23.0,29.31,West,265,4.9,4.9,50,0.00,,,0.00,WXlink_for_OpenVMS,2013-03-04 18:45:00,
2013-03-04 13:50:00,40.6,23.0,29.31,WSW,244,4.9,4.9,50,0.00,,,0.00,WXlink_for_OpenVMS,2013-03-04 18:50:00,
2013-03-04 14:00:00,40.6,23.0,29.31,WNW,294,5.4,5.4,50,0.00,,,0.00,WXlink_for_OpenVMS,2013-03-04 19:00:00,
2013-03-04 14:05:00,40.5,23.0,29.31,WSW,240,4.5,4.5,50,0.00,,,0.00,WXlink_for_OpenVMS,2013-03-04 19:05:00,
2013-03-04 14:10:00,40.5,23.0,29.31,NW,323,4.5,6.3,50,0.00,,,0.00,WXlink_for_OpenVMS,2013-03-04 19:10:00,
2013-03-04 14:20:00,40.5,23.0,29.31,NW,312,4.9,6.3,50,0.00,,,0.00,WXlink_for_OpenVMS,2013-03-04 19:20:00,
2013-03-04 14:25:00,40.1,23.0,29.31,WNW,294,6.3,6.3,50,0.00,,,0.00,WXlink_for_OpenVMS,2013-03-04 19:25:00,
2013-03-04 14:35:00,39.9,23.0,29.31,NW,321,5.4,6.3,50,0.00,,,0.00,WXlink_for_OpenVMS,2013-03-04 19:35:00,
2013-03-04 14:40:00,39.7,23.0,29.31,NW,307,3.1,4.9,50,0.00,,,0.00,WXlink_for_OpenVMS,2013-03-04 19:40:00,
2013-03-04 14:45:00,39.6,22.0,29.31,NW,314,4.0,4.0,50,0.00,,,0.00,WXlink_for_OpenVMS,2013-03-04 19:45:00,
2013-03-04 14:50:00,39.4,22.0,29.31,NW,309,5.4,6.3,50,0.00,,,0.00,WXlink_for_OpenVMS,2013-03-04 19:50:00,
2013-03-04 14:55:00,39.4,22.0,29.31,West,277,5.8,5.8,50,0.00,,,0.00,WXlink_for_OpenVMS,2013-03-04 19:55:00,
2013-03-04 15:00:00,39.4,23.0,29.31,WSW,251,4.5,4.5,51,0.00,,,0.00,WXlink_for_OpenVMS,2013-03-04 20:00:00,
2013-03-04 15:10:00,38.8,23.0,29.31,NW,319,4.9,5.4,52,0.00,,,0.00,WXlink_for_OpenVMS,2013-03-04 20:10:00,
2013-03-04 15:20:00,38.3,22.0,29.34,NW,307,5.4,5.4,52,0.00,,,0.00,WXlink_for_OpenVMS,2013-03-04 20:20:00,
2013-03-04 15:25:00,38.3,23.0,29.34,West,263,4.9,7.6,53,0.00,,,0.00,WXlink_for_OpenVMS,2013-03-04 20:25:00,
2013-03-04 15:30:00,38.3,23.0,29.31,West,270,4.9,5.8,53,0.00,,,0.00,WXlink_for_OpenVMS,2013-03-04 20:30:00,
2013-03-04 15:35:00,38.1,22.0,29.31,WNW,296,6.7,6.7,53,0.00,,,0.00,WXlink_for_OpenVMS,2013-03-04 20:35:00,
2013-03-04 15:40:00,37.9,22.0,29.31,West,280,4.0,4.0,53,0.00,,,0.00,WXlink_for_OpenVMS,2013-03-04 20:40:00,
2013-03-04 15:45:00,37.9,22.0,29.34,SW,235,3.6,3.6,53,0.00,,,0.00,WXlink_for_OpenVMS,2013-03-04 20:45:00,
2013-03-04 15:55:00,37.8,22.0,29.34,West,274,4.9,4.9,53,0.00,,,0.00,WXlink_for_OpenVMS,2013-03-04 20:55:00,
2013-03-04 16:05:00,37.9,22.0,29.34,West,267,4.0,4.0,53,0.00,,,0.00,WXlink_for_OpenVMS,2013-03-04 21:05:00,
2013-03-04 16:10:00,37.9,22.0,29.34,WNW,295,3.6,5.8,53,0.00,,,0.00,WXlink_for_OpenVMS,2013-03-04 21:10:00,
2013-03-04 16:15:00,37.9,22.0,29.34,NW,313,3.6,3.6,53,0.00,,,0.00,WXlink_for_OpenVMS,2013-03-04 21:15:00,
2013-03-04 16:20:00,38.1,22.0,29.34,West,267,4.0,4.0,53,0.00,,,0.00,WXlink_for_OpenVMS,2013-03-04 21:20:00,
2013-03-04 16:30:00,38.3,23.0,29.34,NNW,327,6.3,6.3,53,0.00,,,0.00,WXlink_for_OpenVMS,2013-03-04 21:30:00,
2013-03-04 16:35:00,38.1,22.0,29.34,West,274,4.5,4.5,53,0.00,,,0.00,WXlink_for_OpenVMS,2013-03-04 21:35:00,
2013-03-04 16:40:00,38.1,22.0,29.34,WNW,291,3.6,4.0,53,0.00,,,0.00,WXlink_for_OpenVMS,2013-03-04 21:40:00,
2013-03-04 16:50:00,37.9,22.0,29.34,WNW,298,7.2,7.2,53,0.00,,,0.00,WXlink_for_OpenVMS,2013-03-04 21:50:00,
2013-03-04 16:55:00,37.6,22.0,29.34,NNW,341,4.0,5.8,54,0.00,,,0.00,WXlink_for_OpenVMS,2013-03-04 21:55:00,
2013-03-04 17:05:00,37.4,22.0,29.34,NW,307,4.0,5.4,54,0.00,,,0.00,WXlink_for_OpenVMS,2013-03-04 22:05:00,
2013-03-04 17:15:00,36.9,22.0,29.37,WNW,299,6.3,6.3,55,0.00,,,0.00,WXlink_for_OpenVMS,2013-03-04 22:15:00,
2013-03-04 17:20:00,36.7,22.0,29.37,West,267,5.4,5.4,55,0.00,,,0.00,WXlink_for_OpenVMS,2013-03-04 22:20:00,
2013-03-04 17:25:00,36.3,22.0,29.37,WNW,302,4.5,5.8,56,0.00,,,0.00,WXlink_for_OpenVMS,2013-03-04 22:25:00,
2013-03-04 17:30:00,36.3,22.0,29.37,NW,318,4.9,4.9,56,0.00,,,0.00,WXlink_for_OpenVMS,2013-03-04 22:30:00,
2013-03-04 17:35:00,36.1,22.0,29.37,NNW,332,4.5,4.5,57,0.00,,,0.00,WXlink_for_OpenVMS,2013-03-04 22:35:00,
2013-03-04 17:45:00,36.0,23.0,29.37,WNW,295,4.5,4.5,58,0.00,,,0.00,WXlink_for_OpenVMS,2013-03-04 22:45:00,
2013-03-04 17:50:00,36.0,23.0,29.37,West,276,4.9,5.4,58,0.00,,,0.00,WXlink_for_OpenVMS,2013-03-04 22:50:00,
2013-03-04 17:55:00,35.8,23.0,29.37,SW,234,5.8,10.5,59,0.00,,,0.00,WXlink_for_OpenVMS,2013-03-04 22:55:00,
2013-03-04 18:05:00,35.4,24.0,29.40,WNW,300,4.9,5.8,62,0.00,,,0.00,WXlink_for_OpenVMS,2013-03-04 23:05:00,
2013-03-04 18:10:00,35.1,24.0,29.40,West,276,3.1,4.9,63,0.00,,,0.00,WXlink_for_OpenVMS,2013-03-04 23:10:00,
2013-03-04 18:15:00,35.1,24.0,29.40,WNW,303,4.9,8.7,64,0.00,,,0.00,WXlink_for_OpenVMS,2013-03-04 23:15:00,
2013-03-04 18:20:00,35.1,24.0,29.40,WNW,292,4.5,5.8,65,0.00,,,0.00,WXlink_for_OpenVMS,2013-03-04 23:20:00,
2013-03-04 18:30:00,34.9,24.0,29.40,NW,315,4.0,4.9,65,0.00,,,0.00,WXlink_for_OpenVMS,2013-03-04 23:30:00,
2013-03-04 18:35:00,34.9,25.0,29.40,WNW,284,2.7,3.6,66,0.00,,,0.00,WXlink_for_OpenVMS,2013-03-04 23:35:00,
2013-03-04 18:40:00,34.9,25.0,29.40,NW,305,3.6,4.9,66,0.00,,,0.00,WXlink_for_OpenVMS,2013-03-04 23:40:00,
2013-03-04 18:50:00,34.9,25.0,29.40,West,268,4.9,4.9,67,0.00,,,0.00,WXlink_for_OpenVMS,2013-03-04 23:50:00,
2013-03-04 18:55:00,34.7,25.0,29.40,WNW,291,3.6,3.6,68,0.00,,,0.00,WXlink_for_OpenVMS,2013-03-04 23:55:00,
2013-03-04 19:05:00,34.5,25.0,29.40,WNW,293,4.0,4.0,68,0.00,,,0.00,WXlink_for_OpenVMS,2013-03-05 00:05:00,
2013-03-04 19:10:00,34.5,25.0,29.40,WNW,298,3.1,3.1,68,0.00,,,0.00,WXlink_for_OpenVMS,2013-03-05 00:10:00,
2013-03-04 19:15:00,34.5,25.0,29.40,NW,315,3.1,4.9,69,0.00,,,0.00,WXlink_for_OpenVMS,2013-03-05 00:15:00,
2013-03-04 19:20:00,34.5,25.0,29.40,NW,324,3.6,3.6,69,0.00,,,0.00,WXlink_for_OpenVMS,2013-03-05 00:20:00,
2013-03-04 19:25:00,34.5,25.0,29.40,West,264,4.9,4.9,68,0.00,,,0.00,WXlink_for_OpenVMS,2013-03-05 00:25:00,
2013-03-04 19:35:00,34.5,25.0,29.40,NW,324,3.6,0.0,67,0.00,,,0.00,WXlink_for_OpenVMS,2013-03-05 00:35:00,
2013-03-04 19:45:00,34.7,25.0,29.43,WNW,303,4.0,4.9,66,0.00,,,0.00,WXlink_for_OpenVMS,2013-03-05 00:45:00,
2013-03-04 19:50:00,34.7,24.0,29.43,WNW,288,2.7,3.6,65,0.00,,,0.00,WXlink_for_OpenVMS,2013-03-05 00:50:00,
2013-03-04 19:55:00,34.7,24.0,29.43,WNW,291,3.6,4.9,64,0.00,,,0.00,WXlink_for_OpenVMS,2013-03-05 00:55:00,
2013-03-04 20:00:00,34.7,24.0,29.43,WNW,298,3.6,3.6,64,0.00,,,0.00,WXlink_for_OpenVMS,2013-03-05 01:00:00,
2013-03-04 20:05:00,34.9,24.0,29.43,WNW,295,4.5,5.4,64,0.00,,,0.00,WXlink_for_OpenVMS,2013-03-05 01:05:00,
2013-03-04 20:15:00,34.9,24.0,29.43,NW,306,4.9,5.4,63,0.00,,,0.00,WXlink_for_OpenVMS,2013-03-05 01:15:00,
2013-03-04 20:20:00,34.9,24.0,29.43,NNW,337,3.6,5.4,63,0.00,,,0.00,WXlink_for_OpenVMS,2013-03-05 01:20:00,
2013-03-04 20:25:00,34.9,24.0,29.43,WNW,285,4.5,6.3,63,0.00,,,0.00,WXlink_for_OpenVMS,2013-03-05 01:25:00,
2013-03-04 20:30:00,34.9,23.0,29.43,NW,311,3.6,4.0,62,0.00,,,0.00,WXlink_for_OpenVMS,2013-03-05 01:30:00,
2013-03-04 20:35:00,34.9,24.0,29.43,NW,322,3.1,3.6,63,0.00,,,0.00,WXlink_for_OpenVMS,2013-03-05 01:35:00,
2013-03-04 20:40:00,34.9,23.0,29.43,NW,316,3.1,5.4,62,0.00,,,0.00,WXlink_for_OpenVMS,2013-03-05 01:40:00,
2013-03-04 20:45:00,34.9,23.0,29.43,NW,313,4.5,4.5,62,0.00,,,0.00,WXlink_for_OpenVMS,2013-03-05 01:45:00,
2013-03-04 20:50:00,34.9,23.0,29.43,NW,308,4.0,4.0,62,0.00,,,0.00,WXlink_for_OpenVMS,2013-03-05 01:50:00,
2013-03-04 20:55:00,34.9,23.0,29.43,WNW,287,4.5,5.4,62,0.00,,,0.00,WXlink_for_OpenVMS,2013-03-05 01:55:00,
2013-03-04 21:00:00,34.7,23.0,29.43,WNW,294,4.0,4.0,62,0.00,,,0.00,WXlink_for_OpenVMS,2013-03-05 02:00:00,
2013-03-04 21:05:00,34.7,23.0,29.43,NNW,338,5.4,5.4,61,0.00,,,0.00,WXlink_for_OpenVMS,2013-03-05 02:05:00,
2013-03-04 21:15:00,34.7,23.0,29.43,WNW,296,5.4,5.4,61,0.00,,,0.00,WXlink_for_OpenVMS,2013-03-05 02:15:00,
2013-03-04 21:20:00,34.5,23.0,29.43,NW,306,2.7,3.1,62,0.00,,,0.00,WXlink_for_OpenVMS,2013-03-05 02:20:00,
2013-03-04 21:25:00,34.5,23.0,29.43,WNW,289,4.0,5.4,62,0.00,,,0.00,WXlink_for_OpenVMS,2013-03-05 02:25:00,
2013-03-04 21:30:00,34.5,23.0,29.46,West,260,3.6,3.6,62,0.00,,,0.00,WXlink_for_OpenVMS,2013-03-05 02:30:00,
2013-03-04 21:35:00,34.5,23.0,29.46,WNW,289,3.6,4.0,62,0.00,,,0.00,WXlink_for_OpenVMS,2013-03-05 02:35:00,
2013-03-04 21:40:00,34.3,23.0,29.46,NW,321,4.5,4.9,62,0.00,,,0.00,WXlink_for_OpenVMS,2013-03-05 02:40:00,
2013-03-04 21:45:00,34.3,22.0,29.46,NW,313,5.4,5.4,61,0.00,,,0.00,WXlink_for_OpenVMS,2013-03-05 02:45:00,
2013-03-04 21:55:00,34.2,22.0,29.46,NW,308,4.0,4.0,61,0.00,,,0.00,WXlink_for_OpenVMS,2013-03-05 02:55:00,
2013-03-04 22:05:00,34.2,23.0,29.46,West,275,4.5,4.5,62,0.00,,,0.00,WXlink_for_OpenVMS,2013-03-05 03:05:00,
2013-03-04 22:10:00,34.0,22.0,29.46,NW,306,6.7,6.7,62,0.00,,,0.00,WXlink_for_OpenVMS,2013-03-05 03:10:00,
2013-03-04 22:15:00,34.0,22.0,29.46,WSW,255,5.4,5.8,62,0.00,,,0.00,WXlink_for_OpenVMS,2013-03-05 03:15:00,
2013-03-04 22:20:00,33.8,22.0,29.46,WNW,290,3.6,3.6,62,0.00,,,0.00,WXlink_for_OpenVMS,2013-03-05 03:20:00,
2013-03-04 22:30:00,33.8,22.0,29.46,West,276,3.1,3.1,62,0.00,,,0.00,WXlink_for_OpenVMS,2013-03-05 03:30:00,
2013-03-04 22:40:00,33.8,22.0,29.46,NW,324,3.1,4.5,62,0.00,,,0.00,WXlink_for_OpenVMS,2013-03-05 03:40:00,
2013-03-04 22:45:00,33.8,22.0,29.46,NW,317,4.9,5.8,61,0.00,,,0.00,WXlink_for_OpenVMS,2013-03-05 03:45:00,
2013-03-04 22:50:00,33.8,22.0,29.46,WNW,301,4.0,5.8,62,0.00,,,0.00,WXlink_for_OpenVMS,2013-03-05 03:50:00,
2013-03-04 22:55:00,33.8,22.0,29.46,WNW,299,4.0,4.0,62,0.00,,,0.00,WXlink_for_OpenVMS,2013-03-05 03:55:00,
2013-03-04 23:00:00,33.6,22.0,29.46,NNW,344,0.0,0.0,62,0.00,,,0.00,WXlink_for_OpenVMS,2013-03-05 04:00:00,
2013-03-04 23:05:00,33.6,22.0,29.46,NW,320,4.0,6.7,62,0.00,,,0.00,WXlink_for_OpenVMS,2013-03-05 04:05:00,
2013-03-04 23:10:00,33.6,22.0,29.46,NW,320,2.2,8.3,62,0.00,,,0.00,WXlink_for_OpenVMS,2013-03-05 04:10:00,
2013-03-04 23:15:00,33.6,22.0,29.46,WNW,287,3.6,4.0,62,0.00,,,0.00,WXlink_for_OpenVMS,2013-03-05 04:15:00,
2013-03-04 23:20:00,33.6,22.0,29.46,NW,314,4.5,4.5,62,0.00,,,0.00,WXlink_for_OpenVMS,2013-03-05 04:20:00,
2013-03-04 23:25:00,33.6,22.0,29.46,WNW,296,4.9,5.8,61,0.00,,,0.00,WXlink_for_OpenVMS,2013-03-05 04:25:00,
2013-03-04 23:35:00,33.4,21.0,29.46,WNW,294,4.0,4.0,61,0.00,,,0.00,WXlink_for_OpenVMS,2013-03-05 04:35:00,
2013-03-04 23:40:00,33.3,22.0,29.46,WNW,296,4.9,4.9,62,0.00,,,0.00,WXlink_for_OpenVMS,2013-03-05 04:40:00,
2013-03-04 23:45:00,33.3,21.0,29.46,WNW,293,2.7,3.6,61,0.00,,,0.00,WXlink_for_OpenVMS,2013-03-05 04:45:00,
2013-03-04 23:50:00,33.3,21.0,29.46,WNW,286,3.1,3.1,61,0.00,,,0.00,WXlink_for_OpenVMS,2013-03-05 04:50:00,
2013-03-04 23:55:00,33.3,21.0,29.46,WNW,302,4.0,4.0,61,0.00,,,0.00,WXlink_for_OpenVMS,2013-03-05 04:55:00,